sensor_id;sensor_type;location;lat;lon;timestamp;pressure;altitude;pressure_sealevel;temperature;humidity
35519;BME280;21627;48.216;16.482;2022-09-30T00:01:57;98820.53;;;11.33;100.00
35519;BME280;21627;48.216;16.482;2022-09-30T00:04:24;98837.66;;;11.40;100.00
35519;BME280;21627;48.216;16.482;2022-09-30T00:06:53;98839.34;;;11.41;100.00
35519;BME280;21627;48.216;16.482;2022-09-30T00:09:20;98824.94;;;11.29;100.00
35519;BME280;21627;48.216;16.482;2022-09-30T00:11:48;98828.28;;;11.34;100.00
35519;BME280;21627;48.216;16.482;2022-09-30T00:14:21;98833.41;;;11.36;100.00
35519;BME280;21627;48.216;16.482;2022-09-30T00:16:49;98831.63;;;11.39;100.00
35519;BME280;21627;48.216;16.482;2022-09-30T00:19:19;98834.19;;;11.41;100.00
35519;BME280;21627;48.216;16.482;2022-09-30T00:21:47;98831.53;;;11.44;100.00
35519;BME280;21627;48.216;16.482;2022-09-30T00:24:14;98840.13;;;11.46;100.00
35519;BME280;21627;48.216;16.482;2022-09-30T00:26:41;98829.91;;;11.40;100.00
35519;BME280;21627;48.216;16.482;2022-09-30T00:29:09;98826.41;;;11.42;100.00
35519;BME280;21627;48.216;16.482;2022-09-30T00:31:37;98829.00;;;11.41;100.00
35519;BME280;21627;48.216;16.482;2022-09-30T00:34:04;98823.00;;;11.39;100.00
35519;BME280;21627;48.216;16.482;2022-09-30T00:36:49;98832.50;;;11.40;100.00
35519;BME280;21627;48.216;16.482;2022-09-30T00:39:26;98830.72;;;11.42;100.00
35519;BME280;21627;48.216;16.482;2022-09-30T00:42:00;98835.03;;;11.41;100.00
35519;BME280;21627;48.216;16.482;2022-09-30T00:44:55;98847.81;;;11.51;100.00
35519;BME280;21627;48.216;16.482;2022-09-30T00:50:43;98846.94;;;11.52;100.00
35519;BME280;21627;48.216;16.482;2022-09-30T00:53:25;98840.03;;;11.52;100.00
35519;BME280;21627;48.216;16.482;2022-09-30T00:56:19;98837.53;;;11.46;100.00
35519;BME280;21627;48.216;16.482;2022-09-30T00:59:18;98837.44;;;11.52;100.00
35519;BME280;21627;48.216;16.482;2022-09-30T01:01:46;98838.28;;;11.53;100.00
35519;BME280;21627;48.216;16.482;2022-09-30T01:04:18;98835.72;;;11.51;100.00
35519;BME280;21627;48.216;16.482;2022-09-30T01:06:47;98832.34;;;11.46;100.00
35519;BME280;21627;48.216;16.482;2022-09-30T01:09:14;98840.91;;;11.51;100.00
35519;BME280;21627;48.216;16.482;2022-09-30T01:11:42;98840.03;;;11.51;100.00
35519;BME280;21627;48.216;16.482;2022-09-30T01:14:22;98842.63;;;11.51;100.00
35519;BME280;21627;48.216;16.482;2022-09-30T01:17:09;98843.47;;;11.51;100.00
35519;BME280;21627;48.216;16.482;2022-09-30T01:31:56;98829.59;;;11.57;100.00
35519;BME280;21627;48.216;16.482;2022-09-30T01:41:03;98837.31;;;11.58;100.00
35519;BME280;21627;48.216;16.482;2022-09-30T01:44:00;98845.03;;;11.61;100.00
35519;BME280;21627;48.216;16.482;2022-09-30T01:46:50;98849.41;;;11.59;100.00
35519;BME280;21627;48.216;16.482;2022-09-30T01:55:21;98841.50;;;11.64;100.00
35519;BME280;21627;48.216;16.482;2022-09-30T01:57:51;98837.22;;;11.64;100.00
35519;BME280;21627;48.216;16.482;2022-09-30T02:00:21;98828.72;;;11.56;100.00
35519;BME280;21627;48.216;16.482;2022-09-30T02:03:27;98845.84;;;11.63;100.00
35519;BME280;21627;48.216;16.482;2022-09-30T02:06:10;98841.50;;;11.64;100.00
35519;BME280;21627;48.216;16.482;2022-09-30T02:08:55;98843.25;;;11.63;100.00
35519;BME280;21627;48.216;16.482;2022-09-30T02:11:27;98832.13;;;11.60;100.00
35519;BME280;21627;48.216;16.482;2022-09-30T02:14:11;98840.72;;;11.62;100.00
35519;BME280;21627;48.216;16.482;2022-09-30T02:16:58;98842.44;;;11.61;100.00
35519;BME280;21627;48.216;16.482;2022-09-30T02:19:48;98837.25;;;11.61;100.00
35519;BME280;21627;48.216;16.482;2022-09-30T02:22:41;98845.91;;;11.62;100.00
35519;BME280;21627;48.216;16.482;2022-09-30T02:25:23;98844.22;;;11.59;100.00
35519;BME280;21627;48.216;16.482;2022-09-30T02:27:58;98845.91;;;11.62;100.00
35519;BME280;21627;48.216;16.482;2022-09-30T02:30:28;98844.16;;;11.62;100.00
35519;BME280;21627;48.216;16.482;2022-09-30T02:33:00;98847.56;;;11.64;100.00
35519;BME280;21627;48.216;16.482;2022-09-30T02:35:36;98854.50;;;11.62;100.00
35519;BME280;21627;48.216;16.482;2022-09-30T02:38:13;98841.78;;;11.52;100.00
35519;BME280;21627;48.216;16.482;2022-09-30T02:40:59;98854.56;;;11.59;100.00
35519;BME280;21627;48.216;16.482;2022-09-30T02:43:28;98863.22;;;11.58;100.00
35519;BME280;21627;48.216;16.482;2022-09-30T02:46:24;98851.25;;;11.51;100.00
35519;BME280;21627;48.216;16.482;2022-09-30T02:49:38;98867.53;;;11.58;100.00
35519;BME280;21627;48.216;16.482;2022-09-30T02:52:23;98875.31;;;11.56;100.00
35519;BME280;21627;48.216;16.482;2022-09-30T02:55:22;98869.28;;;11.57;100.00
35519;BME280;21627;48.216;16.482;2022-09-30T02:58:13;98864.19;;;11.51;100.00
35519;BME280;21627;48.216;16.482;2022-09-30T03:00:42;98864.19;;;11.53;100.00
35519;BME280;21627;48.216;16.482;2022-09-30T03:03:21;98853.03;;;11.49;100.00
35519;BME280;21627;48.216;16.482;2022-09-30T03:05:50;98863.34;;;11.52;100.00
35519;BME280;21627;48.216;16.482;2022-09-30T03:08:18;98850.44;;;11.49;100.00
35519;BME280;21627;48.216;16.482;2022-09-30T03:10:49;98853.97;;;11.45;100.00
35519;BME280;21627;48.216;16.482;2022-09-30T03:30:37;98875.72;;;11.35;100.00
35519;BME280;21627;48.216;16.482;2022-09-30T03:39:00;98878.50;;;11.24;100.00
35519;BME280;21627;48.216;16.482;2022-09-30T03:45:01;98886.28;;;11.21;100.00
35519;BME280;21627;48.216;16.482;2022-09-30T03:47:36;98882.00;;;11.18;100.00
35519;BME280;21627;48.216;16.482;2022-09-30T03:50:09;98887.22;;;11.17;100.00
35519;BME280;21627;48.216;16.482;2022-09-30T03:52:38;98887.31;;;11.11;100.00
35519;BME280;21627;48.216;16.482;2022-09-30T03:55:06;98893.34;;;11.11;100.00
35519;BME280;21627;48.216;16.482;2022-09-30T03:57:37;98895.91;;;11.13;100.00
35519;BME280;21627;48.216;16.482;2022-09-30T04:00:06;98895.13;;;11.09;100.00
35519;BME280;21627;48.216;16.482;2022-09-30T04:02:37;98881.44;;;11.01;100.00
35519;BME280;21627;48.216;16.482;2022-09-30T04:05:05;98896.88;;;11.05;100.00
35519;BME280;21627;48.216;16.482;2022-09-30T04:07:34;98901.22;;;11.03;100.00
35519;BME280;21627;48.216;16.482;2022-09-30T04:10:05;98897.81;;;11.01;100.00
35519;BME280;21627;48.216;16.482;2022-09-30T04:12:33;98901.31;;;10.99;100.00
35519;BME280;21627;48.216;16.482;2022-09-30T04:15:00;98903.03;;;10.98;100.00
35519;BME280;21627;48.216;16.482;2022-09-30T04:17:30;98906.50;;;10.99;100.00
35519;BME280;21627;48.216;16.482;2022-09-30T04:20:01;98915.09;;;10.99;100.00
35519;BME280;21627;48.216;16.482;2022-09-30T04:22:28;98914.31;;;10.94;100.00
35519;BME280;21627;48.216;16.482;2022-09-30T04:24:55;98905.72;;;10.91;100.00
35519;BME280;21627;48.216;16.482;2022-09-30T04:27:22;98913.47;;;10.92;100.00
35519;BME280;21627;48.216;16.482;2022-09-30T04:29:50;98927.25;;;10.94;100.00
35519;BME280;21627;48.216;16.482;2022-09-30T04:32:23;98912.69;;;10.86;100.00
35519;BME280;21627;48.216;16.482;2022-09-30T04:34:51;98929.88;;;10.91;100.00
35519;BME280;21627;48.216;16.482;2022-09-30T04:37:20;98929.03;;;10.89;100.00
35519;BME280;21627;48.216;16.482;2022-09-30T04:39:47;98930.84;;;10.84;100.00
35519;BME280;21627;48.216;16.482;2022-09-30T04:42:14;98916.28;;;10.75;100.00
35519;BME280;21627;48.216;16.482;2022-09-30T04:44:44;98933.50;;;10.79;100.00
35519;BME280;21627;48.216;16.482;2022-09-30T04:47:11;98943.81;;;10.81;100.00
35519;BME280;21627;48.216;16.482;2022-09-30T04:49:38;98945.53;;;10.80;100.00
35519;BME280;21627;48.216;16.482;2022-09-30T04:52:09;98951.59;;;10.78;100.00
35519;BME280;21627;48.216;16.482;2022-09-30T04:54:36;98953.38;;;10.74;100.00
35519;BME280;21627;48.216;16.482;2022-09-30T04:57:03;98953.44;;;10.71;100.00
35519;BME280;21627;48.216;16.482;2022-09-30T04:59:30;98957.72;;;10.71;100.00
35519;BME280;21627;48.216;16.482;2022-09-30T05:01:59;98950.09;;;10.61;100.00
35519;BME280;21627;48.216;16.482;2022-09-30T05:04:27;98952.69;;;10.60;100.00
35519;BME280;21627;48.216;16.482;2022-09-30T05:06:55;98968.09;;;10.69;100.00
35519;BME280;21627;48.216;16.482;2022-09-30T05:09:23;98970.69;;;10.68;100.00
35519;BME280;21627;48.216;16.482;2022-09-30T05:11:51;98973.34;;;10.65;100.00
35519;BME280;21627;48.216;16.482;2022-09-30T05:14:21;98981.09;;;10.63;100.00
35519;BME280;21627;48.216;16.482;2022-09-30T05:16:48;98988.91;;;10.60;100.00
35519;BME280;21627;48.216;16.482;2022-09-30T05:19:15;98982.06;;;10.54;100.00
35519;BME280;21627;48.216;16.482;2022-09-30T05:21:43;98999.31;;;10.54;100.00
35519;BME280;21627;48.216;16.482;2022-09-30T05:24:10;99005.38;;;10.50;100.00
35519;BME280;21627;48.216;16.482;2022-09-30T05:26:39;98995.16;;;10.42;100.00
35519;BME280;21627;48.216;16.482;2022-09-30T05:29:08;99012.34;;;10.46;100.00
35519;BME280;21627;48.216;16.482;2022-09-30T05:31:39;99013.22;;;10.44;100.00
35519;BME280;21627;48.216;16.482;2022-09-30T05:34:08;99014.09;;;10.43;100.00
35519;BME280;21627;48.216;16.482;2022-09-30T05:36:35;99004.69;;;10.35;100.00
35519;BME280;21627;48.216;16.482;2022-09-30T05:39:03;99019.34;;;10.36;100.00
35519;BME280;21627;48.216;16.482;2022-09-30T05:41:30;99039.97;;;10.41;100.00
35519;BME280;21627;48.216;16.482;2022-09-30T05:43:57;99035.66;;;10.40;100.00
35519;BME280;21627;48.216;16.482;2022-09-30T05:46:27;99038.28;;;10.37;100.00
35519;BME280;21627;48.216;16.482;2022-09-30T05:48:54;99053.78;;;10.38;100.00
35519;BME280;21627;48.216;16.482;2022-09-30T05:51:22;99046.03;;;10.37;100.00
35519;BME280;21627;48.216;16.482;2022-09-30T05:53:49;99048.59;;;10.35;100.00
35519;BME280;21627;48.216;16.482;2022-09-30T05:56:20;99052.94;;;10.35;100.00
35519;BME280;21627;48.216;16.482;2022-09-30T05:58:48;99050.38;;;10.30;100.00
35519;BME280;21627;48.216;16.482;2022-09-30T06:01:17;99039.19;;;10.30;100.00
35519;BME280;21627;48.216;16.482;2022-09-30T06:03:47;99057.25;;;10.34;100.00
35519;BME280;21627;48.216;16.482;2022-09-30T06:06:21;99059.81;;;10.34;100.00
35519;BME280;21627;48.216;16.482;2022-09-30T06:08:49;99065.06;;;10.28;100.00
35519;BME280;21627;48.216;16.482;2022-09-30T06:11:20;99077.03;;;10.35;100.00
35519;BME280;21627;48.216;16.482;2022-09-30T06:13:49;99066.78;;;10.31;100.00
35519;BME280;21627;48.216;16.482;2022-09-30T06:16:20;99084.78;;;10.37;100.00
35519;BME280;21627;48.216;16.482;2022-09-30T06:18:49;99083.94;;;10.35;100.00
35519;BME280;21627;48.216;16.482;2022-09-30T06:21:17;99095.09;;;10.40;100.00
35519;BME280;21627;48.216;16.482;2022-09-30T06:23:45;99090.84;;;10.36;100.00
35519;BME280;21627;48.216;16.482;2022-09-30T06:26:13;99090.75;;;10.40;100.00
35519;BME280;21627;48.216;16.482;2022-09-30T06:28:41;99077.03;;;10.35;100.00
35519;BME280;21627;48.216;16.482;2022-09-30T06:31:09;99097.63;;;10.45;100.00
35519;BME280;21627;48.216;16.482;2022-09-30T06:33:37;99103.63;;;10.48;100.00
35519;BME280;21627;48.216;16.482;2022-09-30T06:36:07;99103.59;;;10.50;100.00
35519;BME280;21627;48.216;16.482;2022-09-30T06:38:34;99113.94;;;10.50;100.00
35519;BME280;21627;48.216;16.482;2022-09-30T06:41:03;99095.03;;;10.43;100.00
35519;BME280;21627;48.216;16.482;2022-09-30T06:43:34;99114.78;;;10.50;100.00
35519;BME280;21627;48.216;16.482;2022-09-30T06:46:01;99114.78;;;10.52;100.00
35519;BME280;21627;48.216;16.482;2022-09-30T06:48:40;99114.78;;;10.52;100.00
35519;BME280;21627;48.216;16.482;2022-09-30T06:51:08;99132.88;;;10.53;100.00
35519;BME280;21627;48.216;16.482;2022-09-30T06:53:37;99127.72;;;10.53;100.00
35519;BME280;21627;48.216;16.482;2022-09-30T06:56:06;99122.50;;;10.55;100.00
35519;BME280;21627;48.216;16.482;2022-09-30T06:58:36;99124.28;;;10.51;100.00
35519;BME280;21627;48.216;16.482;2022-09-30T07:01:05;99137.97;;;10.58;100.00
35519;BME280;21627;48.216;16.482;2022-09-30T07:03:34;99138.00;;;10.56;100.00
35519;BME280;21627;48.216;16.482;2022-09-30T07:06:04;99139.75;;;10.56;100.00
35519;BME280;21627;48.216;16.482;2022-09-30T07:08:34;99147.50;;;10.56;100.00
35519;BME280;21627;48.216;16.482;2022-09-30T07:11:09;99151.78;;;10.58;100.00
35519;BME280;21627;48.216;16.482;2022-09-30T07:13:42;99158.66;;;10.59;100.00
35519;BME280;21627;48.216;16.482;2022-09-30T07:16:15;99140.69;;;10.49;100.00
35519;BME280;21627;48.216;16.482;2022-09-30T07:18:43;99143.22;;;10.50;100.00
35519;BME280;21627;48.216;16.482;2022-09-30T07:21:15;99145.81;;;10.52;100.00
35519;BME280;21627;48.216;16.482;2022-09-30T07:23:44;99158.59;;;10.67;100.00
35519;BME280;21627;48.216;16.482;2022-09-30T07:26:19;99167.22;;;10.65;100.00
35519;BME280;21627;48.216;16.482;2022-09-30T07:28:48;99162.06;;;10.65;100.00
35519;BME280;21627;48.216;16.482;2022-09-30T07:31:24;99163.81;;;10.61;100.00
35519;BME280;21627;48.216;16.482;2022-09-30T07:34:07;99167.22;;;10.63;100.00
35519;BME280;21627;48.216;16.482;2022-09-30T07:36:38;99171.53;;;10.64;100.00
35519;BME280;21627;48.216;16.482;2022-09-30T07:39:08;99177.56;;;10.66;100.00
35519;BME280;21627;48.216;16.482;2022-09-30T07:41:41;99180.13;;;10.69;100.00
35519;BME280;21627;48.216;16.482;2022-09-30T07:44:14;99172.44;;;10.60;100.00
35519;BME280;21627;48.216;16.482;2022-09-30T07:46:45;99182.69;;;10.68;100.00
35519;BME280;21627;48.216;16.482;2022-09-30T07:49:15;99175.88;;;10.60;100.00
35519;BME280;21627;48.216;16.482;2022-09-30T07:51:56;99187.03;;;10.67;100.00
35519;BME280;21627;48.216;16.482;2022-09-30T07:54:30;99181.84;;;10.67;100.00
35519;BME280;21627;48.216;16.482;2022-09-30T07:57:03;99186.13;;;10.70;100.00
35519;BME280;21627;48.216;16.482;2022-09-30T07:59:39;99183.50;;;10.74;100.00
35519;BME280;21627;48.216;16.482;2022-09-30T08:02:13;99195.50;;;10.78;100.00
35519;BME280;21627;48.216;16.482;2022-09-30T08:04:41;99188.66;;;10.77;100.00
35519;BME280;21627;48.216;16.482;2022-09-30T08:07:13;99195.47;;;10.85;100.00
35519;BME280;21627;48.216;16.482;2022-09-30T08:09:41;99204.94;;;10.87;100.00
35519;BME280;21627;48.216;16.482;2022-09-30T08:12:08;99204.06;;;10.87;100.00
35519;BME280;21627;48.216;16.482;2022-09-30T08:14:39;99210.06;;;10.90;100.00
35519;BME280;21627;48.216;16.482;2022-09-30T08:17:07;99223.00;;;10.92;100.00
35519;BME280;21627;48.216;16.482;2022-09-30T08:19:34;99214.44;;;10.85;100.00
35519;BME280;21627;48.216;16.482;2022-09-30T08:22:01;99230.75;;;10.90;100.00
35519;BME280;21627;48.216;16.482;2022-09-30T08:24:34;99241.91;;;10.95;100.00
35519;BME280;21627;48.216;16.482;2022-09-30T08:27:04;99237.59;;;10.97;100.00
35519;BME280;21627;48.216;16.482;2022-09-30T08:29:35;99247.13;;;10.94;100.00
35519;BME280;21627;48.216;16.482;2022-09-30T08:32:23;99245.38;;;10.93;100.00
35519;BME280;21627;48.216;16.482;2022-09-30T08:34:51;99245.41;;;10.90;100.00
35519;BME280;21627;48.216;16.482;2022-09-30T08:37:18;99255.66;;;11.02;100.00
35519;BME280;21627;48.216;16.482;2022-09-30T08:39:45;99260.78;;;11.03;100.00
35519;BME280;21627;48.216;16.482;2022-09-30T08:43:30;99254.78;;;11.04;100.00
35519;BME280;21627;48.216;16.482;2022-09-30T08:51:54;99269.19;;;11.27;100.00
35519;BME280;21627;48.216;16.482;2022-09-30T08:54:25;99269.13;;;11.35;100.00
35519;BME280;21627;48.216;16.482;2022-09-30T08:56:55;99266.50;;;11.38;100.00
35519;BME280;21627;48.216;16.482;2022-09-30T09:02:32;99272.41;;;11.47;100.00
35519;BME280;21627;48.216;16.482;2022-09-30T09:05:05;99269.88;;;11.43;100.00
35519;BME280;21627;48.216;16.482;2022-09-30T09:10:54;99268.94;;;11.52;100.00
35519;BME280;21627;48.216;16.482;2022-09-30T09:13:41;99267.25;;;11.49;100.00
35519;BME280;21627;48.216;16.482;2022-09-30T09:24:43;99269.47;;;11.78;100.00
35519;BME280;21627;48.216;16.482;2022-09-30T09:27:38;99249.72;;;11.68;100.00
35519;BME280;21627;48.216;16.482;2022-09-30T09:30:20;99273.75;;;11.81;100.00
35519;BME280;21627;48.216;16.482;2022-09-30T09:32:57;99266.03;;;11.76;100.00
35519;BME280;21627;48.216;16.482;2022-09-30T09:35:47;99281.44;;;11.90;100.00
35519;BME280;21627;48.216;16.482;2022-09-30T09:44:25;99295.34;;;11.80;100.00
35519;BME280;21627;48.216;16.482;2022-09-30T09:47:12;99297.84;;;11.86;100.00
35519;BME280;21627;48.216;16.482;2022-09-30T09:49:55;99298.72;;;11.89;100.00
35519;BME280;21627;48.216;16.482;2022-09-30T09:55:20;99291.81;;;11.90;100.00
35519;BME280;21627;48.216;16.482;2022-09-30T09:58:13;99299.47;;;11.96;100.00
35519;BME280;21627;48.216;16.482;2022-09-30T10:00:44;99281.34;;;11.96;100.00
35519;BME280;21627;48.216;16.482;2022-09-30T10:03:24;99302.66;;;12.17;100.00
35519;BME280;21627;48.216;16.482;2022-09-30T10:06:02;99312.13;;;12.21;100.00
35519;BME280;21627;48.216;16.482;2022-09-30T10:08:33;99312.03;;;12.27;100.00
35519;BME280;21627;48.216;16.482;2022-09-30T10:11:17;99322.31;;;12.31;100.00
35519;BME280;21627;48.216;16.482;2022-09-30T10:13:46;99321.44;;;12.34;100.00
35519;BME280;21627;48.216;16.482;2022-09-30T10:16:32;99329.22;;;12.34;100.00
35519;BME280;21627;48.216;16.482;2022-09-30T10:19:16;99334.38;;;12.34;100.00
35519;BME280;21627;48.216;16.482;2022-09-30T10:21:44;99324.91;;;12.31;100.00
35519;BME280;21627;48.216;16.482;2022-09-30T10:24:29;99330.88;;;12.38;100.00
35519;BME280;21627;48.216;16.482;2022-09-30T10:26:56;99333.47;;;12.38;100.00
35519;BME280;21627;48.216;16.482;2022-09-30T10:29:30;99345.56;;;12.39;100.00
35519;BME280;21627;48.216;16.482;2022-09-30T10:32:08;99348.19;;;12.34;100.00
35519;BME280;21627;48.216;16.482;2022-09-30T10:34:39;99361.09;;;12.41;100.00
35519;BME280;21627;48.216;16.482;2022-09-30T10:37:20;99369.81;;;12.35;100.00
35519;BME280;21627;48.216;16.482;2022-09-30T10:40:07;99364.59;;;12.38;100.00
35519;BME280;21627;48.216;16.482;2022-09-30T10:42:40;99349.00;;;12.40;100.00
35519;BME280;21627;48.216;16.482;2022-09-30T10:45:32;99360.97;;;12.50;100.00
35519;BME280;21627;48.216;16.482;2022-09-30T10:48:12;99373.91;;;12.53;100.00
35519;BME280;21627;48.216;16.482;2022-09-30T10:50:52;99376.53;;;12.50;100.00
35519;BME280;21627;48.216;16.482;2022-09-30T10:53:26;99382.44;;;12.60;100.00
35519;BME280;21627;48.216;16.482;2022-09-30T10:55:56;99381.56;;;12.61;100.00
35519;BME280;21627;48.216;16.482;2022-09-30T10:58:50;99374.63;;;12.63;100.00
35519;BME280;21627;48.216;16.482;2022-09-30T11:01:40;99383.38;;;12.55;100.00
35519;BME280;21627;48.216;16.482;2022-09-30T11:06:44;99357.56;;;12.46;100.00
35519;BME280;21627;48.216;16.482;2022-09-30T11:09:55;99367.66;;;12.66;100.00
35519;BME280;21627;48.216;16.482;2022-09-30T11:12:42;99373.56;;;12.76;100.00
35519;BME280;21627;48.216;16.482;2022-09-30T11:15:23;99395.09;;;12.81;100.00
35519;BME280;21627;48.216;16.482;2022-09-30T11:20:44;99401.25;;;12.74;100.00
35519;BME280;21627;48.216;16.482;2022-09-30T11:26:33;99407.50;;;12.61;100.00
35519;BME280;21627;48.216;16.482;2022-09-30T11:32:42;99435.03;;;12.69;100.00
35519;BME280;21627;48.216;16.482;2022-09-30T11:41:09;99422.63;;;12.91;100.00
35519;BME280;21627;48.216;16.482;2022-09-30T11:52:54;99430.47;;;13.46;100.00
35519;BME280;21627;48.216;16.482;2022-09-30T11:58:20;99423.53;;;13.45;100.00
35519;BME280;21627;48.216;16.482;2022-09-30T12:04:06;99427.03;;;13.44;100.00
35519;BME280;21627;48.216;16.482;2022-09-30T12:06:56;99433.84;;;13.49;100.00
35519;BME280;21627;48.216;16.482;2022-09-30T12:12:11;99435.41;;;13.58;100.00
35519;BME280;21627;48.216;16.482;2022-09-30T12:15:00;99450.66;;;13.79;100.00
35519;BME280;21627;48.216;16.482;2022-09-30T12:17:47;99435.59;;;13.97;100.00
35519;BME280;21627;48.216;16.482;2022-09-30T12:23:16;99445.22;;;14.37;100.00
35519;BME280;21627;48.216;16.482;2022-09-30T12:26:05;99449.28;;;14.50;100.00
35519;BME280;21627;48.216;16.482;2022-09-30T12:28:36;99449.38;;;14.45;100.00
35519;BME280;21627;48.216;16.482;2022-09-30T12:38:27;99447.53;;;14.07;100.00
35519;BME280;21627;48.216;16.482;2022-09-30T12:44:30;99433.94;;;13.93;100.00
35519;BME280;21627;48.216;16.482;2022-09-30T12:49:55;99443.19;;;14.06;100.00
35519;BME280;21627;48.216;16.482;2022-09-30T12:52:25;99449.91;;;14.19;100.00
35519;BME280;21627;48.216;16.482;2022-09-30T12:55:30;99449.72;;;14.72;100.00
35519;BME280;21627;48.216;16.482;2022-09-30T12:58:03;99452.00;;;15.25;100.00
35519;BME280;21627;48.216;16.482;2022-09-30T13:00:34;99457.03;;;15.31;100.00
35519;BME280;21627;48.216;16.482;2022-09-30T13:03:07;99458.06;;;15.24;100.00
35519;BME280;21627;48.216;16.482;2022-09-30T13:08:30;99464.56;;;15.43;100.00
35519;BME280;21627;48.216;16.482;2022-09-30T13:10:59;99448.19;;;15.38;100.00
35519;BME280;21627;48.216;16.482;2022-09-30T13:13:31;99458.75;;;15.66;100.00
35519;BME280;21627;48.216;16.482;2022-09-30T13:16:02;99472.72;;;15.65;100.00
35519;BME280;21627;48.216;16.482;2022-09-30T13:23:45;99477.47;;;15.84;98.24
35519;BME280;21627;48.216;16.482;2022-09-30T13:34:29;99466.50;;;16.36;97.55
35519;BME280;21627;48.216;16.482;2022-09-30T13:37:03;99461.63;;;16.54;99.89
35519;BME280;21627;48.216;16.482;2022-09-30T13:42:24;99444.56;;;16.72;91.15
35519;BME280;21627;48.216;16.482;2022-09-30T13:45:11;99453.03;;;16.50;98.21
35519;BME280;21627;48.216;16.482;2022-09-30T13:48:13;99461.44;;;16.60;95.77
35519;BME280;21627;48.216;16.482;2022-09-30T13:50:48;99455.13;;;16.37;100.00
35519;BME280;21627;48.216;16.482;2022-09-30T13:53:33;99461.84;;;16.15;100.00
35519;BME280;21627;48.216;16.482;2022-09-30T13:56:07;99475.56;;;15.90;100.00
35519;BME280;21627;48.216;16.482;2022-09-30T14:09:02;99441.63;;;15.57;100.00
35519;BME280;21627;48.216;16.482;2022-09-30T14:17:18;99455.38;;;16.59;91.48
35519;BME280;21627;48.216;16.482;2022-09-30T14:22:47;99460.50;;;16.94;86.17
35519;BME280;21627;48.216;16.482;2022-09-30T14:25:19;99465.47;;;16.72;86.47
35519;BME280;21627;48.216;16.482;2022-09-30T14:28:33;99457.19;;;16.57;93.00
35519;BME280;21627;48.216;16.482;2022-09-30T14:31:03;99456.69;;;16.44;94.05
35519;BME280;21627;48.216;16.482;2022-09-30T14:33:38;99453.56;;;16.32;94.29
35519;BME280;21627;48.216;16.482;2022-09-30T14:36:19;99452.94;;;16.23;97.27
35519;BME280;21627;48.216;16.482;2022-09-30T14:38:56;99446.38;;;16.09;98.57
35519;BME280;21627;48.216;16.482;2022-09-30T14:41:28;99449.94;;;16.06;100.00
35519;BME280;21627;48.216;16.482;2022-09-30T14:43:59;99443.41;;;15.90;100.00
35519;BME280;21627;48.216;16.482;2022-09-30T14:46:39;99446.22;;;15.82;100.00
35519;BME280;21627;48.216;16.482;2022-09-30T14:49:15;99430.88;;;15.70;100.00
35519;BME280;21627;48.216;16.482;2022-09-30T14:51:46;99442.22;;;15.67;100.00
35519;BME280;21627;48.216;16.482;2022-09-30T14:54:23;99446.75;;;15.61;100.00
35519;BME280;21627;48.216;16.482;2022-09-30T14:56:51;99439.97;;;15.55;100.00
35519;BME280;21627;48.216;16.482;2022-09-30T14:59:25;99444.44;;;15.50;100.00
35519;BME280;21627;48.216;16.482;2022-09-30T15:02:17;99450.41;;;15.53;100.00
35519;BME280;21627;48.216;16.482;2022-09-30T15:04:53;99454.84;;;15.50;100.00
35519;BME280;21627;48.216;16.482;2022-09-30T15:07:30;99463.72;;;15.41;100.00
35519;BME280;21627;48.216;16.482;2022-09-30T15:10:00;99467.38;;;15.34;100.00
35519;BME280;21627;48.216;16.482;2022-09-30T15:12:33;99458.91;;;15.24;100.00
35519;BME280;21627;48.216;16.482;2022-09-30T15:17:53;99463.47;;;15.16;100.00
35519;BME280;21627;48.216;16.482;2022-09-30T15:20:30;99460.16;;;15.09;100.00
35519;BME280;21627;48.216;16.482;2022-09-30T15:23:02;99471.56;;;15.04;100.00
35519;BME280;21627;48.216;16.482;2022-09-30T15:25:32;99470.84;;;14.97;100.00
35519;BME280;21627;48.216;16.482;2022-09-30T15:28:00;99486.59;;;14.91;100.00
35519;BME280;21627;48.216;16.482;2022-09-30T15:30:30;99491.94;;;14.85;100.00
35519;BME280;21627;48.216;16.482;2022-09-30T15:33:02;99484.38;;;14.74;100.00
35519;BME280;21627;48.216;16.482;2022-09-30T15:35:31;99485.25;;;14.73;100.00
35519;BME280;21627;48.216;16.482;2022-09-30T15:40:46;99487.19;;;14.63;100.00
35519;BME280;21627;48.216;16.482;2022-09-30T15:48:43;99467.56;;;14.47;100.00
35519;BME280;21627;48.216;16.482;2022-09-30T15:51:39;99480.63;;;14.44;100.00
35519;BME280;21627;48.216;16.482;2022-09-30T15:54:30;99492.75;;;14.45;100.00
35519;BME280;21627;48.216;16.482;2022-09-30T15:57:45;99488.47;;;14.41;100.00
35519;BME280;21627;48.216;16.482;2022-09-30T16:00:34;99483.41;;;14.33;100.00
35519;BME280;21627;48.216;16.482;2022-09-30T16:03:29;99491.22;;;14.35;100.00
35519;BME280;21627;48.216;16.482;2022-09-30T16:06:12;99489.59;;;14.27;100.00
35519;BME280;21627;48.216;16.482;2022-09-30T16:08:49;99493.13;;;14.25;100.00
35519;BME280;21627;48.216;16.482;2022-09-30T16:11:35;99505.28;;;14.24;100.00
35519;BME280;21627;48.216;16.482;2022-09-30T16:14:04;99491.44;;;14.22;100.00
35519;BME280;21627;48.216;16.482;2022-09-30T16:16:37;99501.00;;;14.20;100.00
35519;BME280;21627;48.216;16.482;2022-09-30T16:19:05;99508.03;;;14.17;100.00
35519;BME280;21627;48.216;16.482;2022-09-30T16:21:50;99504.66;;;14.10;100.00
35519;BME280;21627;48.216;16.482;2022-09-30T16:26:57;99519.41;;;14.10;100.00
35519;BME280;21627;48.216;16.482;2022-09-30T16:29:26;99520.31;;;14.07;100.00